Time;durP1;ratioP1;P1;durP2;ratioP2;P2;SDS_P1;SDS_P2;PMS_P1;PMS_P2;Temp;Humidity;BMP_temperature;BMP_pressure;BME280_temperature;BME280_humidity;BME280_pressure;Samples;Min_cycle;Max_cycle;Signal;HPM_P1;HPM_P2
2022/05/09 00:01:06;;;;;;;7.93;6.00;;;;;;;;;;771555;179;918747;-67
2022/05/09 00:03:32;;;;;;;10.20;7.70;;;;;;;;;;766451;182;1013749;-68
2022/05/09 00:05:58;;;;;;;9.73;6.80;;;;;;;;;;776017;179;921537;-68
2022/05/09 00:08:24;;;;;;;8.43;6.57;;;;;;;;;;768995;178;919600;-68
2022/05/09 00:10:50;;;;;;;7.03;6.20;;;;;;;;;;779532;180;868959;-68
2022/05/09 00:13:15;;;;;;;13.93;7.23;;;;;;;;;;775363;179;916450;-68
2022/05/09 00:15:41;;;;;;;9.03;7.30;;;;;;;;;;776518;179;916700;-67
2022/05/09 00:18:07;;;;;;;10.13;7.83;;;;;;;;;;786042;179;919736;-67
2022/05/09 00:20:33;;;;;;;9.70;8.30;;;;;;;;;;772078;177;914013;-69
2022/05/09 00:22:59;;;;;;;14.93;9.30;;;;;;;;;;768013;181;919351;-68
2022/05/09 00:25:25;;;;;;;11.00;8.07;;;;;;;;;;779968;179;919460;-67
2022/05/09 00:27:51;;;;;;;10.70;8.30;;;;;;;;;;776336;179;918801;-66
2022/05/09 00:30:17;;;;;;;9.30;8.07;;;;;;;;;;768455;180;919312;-67
2022/05/09 00:32:43;;;;;;;11.23;7.93;;;;;;;;;;765220;180;918378;-67
2022/05/09 00:35:09;;;;;;;10.67;7.80;;;;;;;;;;772455;180;918630;-68
2022/05/09 00:37:34;;;;;;;13.67;8.30;;;;;;;;;;773018;179;919557;-67
2022/05/09 00:40:00;;;;;;;9.10;7.70;;;;;;;;;;775192;179;919457;-67
2022/05/09 00:42:26;;;;;;;14.13;8.20;;;;;;;;;;780981;180;920949;-67
2022/05/09 00:44:52;;;;;;;11.00;7.53;;;;;;;;;;778292;179;920240;-67
2022/05/09 00:47:20;;;;;;;11.10;8.10;;;;;;;;;;776027;179;919243;-69
2022/05/09 00:49:47;;;;;;;10.13;7.53;;;;;;;;;;778143;179;920409;-68
2022/05/09 00:52:12;;;;;;;9.60;7.57;;;;;;;;;;781738;179;918549;-67
2022/05/09 00:54:38;;;;;;;16.23;8.40;;;;;;;;;;772133;179;919216;-67
2022/05/09 00:57:04;;;;;;;13.73;8.23;;;;;;;;;;772177;180;919091;-66
2022/05/09 00:59:30;;;;;;;13.53;8.30;;;;;;;;;;783094;179;919112;-68
2022/05/09 01:01:55;;;;;;;12.57;8.23;;;;;;;;;;778150;179;918754;-68
2022/05/09 01:04:21;;;;;;;12.60;8.20;;;;;;;;;;776505;179;1022223;-67
2022/05/09 01:06:47;;;;;;;11.77;8.77;;;;;;;;;;778826;179;919201;-69
2022/05/09 01:09:13;;;;;;;12.80;8.40;;;;;;;;;;772533;179;920426;-68
2022/05/09 01:11:39;;;;;;;12.85;9.18;;;;;;;;;;767500;182;918697;-69
2022/05/09 01:14:07;;;;;;;11.20;8.10;;;;;;;;;;784245;177;920630;-66
2022/05/09 01:16:34;;;;;;;13.20;7.37;;;;;;;;;;775112;181;917834;-67
2022/05/09 01:19:00;;;;;;;13.00;7.93;;;;;;;;;;765382;180;918439;-68
2022/05/09 01:21:29;;;;;;;9.20;7.27;;;;;;;;;;765235;179;921466;-67
2022/05/09 01:23:54;;;;;;;12.10;9.47;;;;;;;;;;782100;177;918437;-67
2022/05/09 01:26:20;;;;;;;11.90;8.10;;;;;;;;;;776074;179;916520;-67
2022/05/09 01:28:46;;;;;;;11.87;8.47;;;;;;;;;;777406;179;921576;-67
2022/05/09 01:31:12;;;;;;;13.53;8.47;;;;;;;;;;776870;180;947840;-67
2022/05/09 01:33:38;;;;;;;12.50;9.00;;;;;;;;;;769555;179;915654;-67
2022/05/09 01:36:04;;;;;;;10.67;8.93;;;;;;;;;;767667;182;914355;-67
2022/05/09 01:38:30;;;;;;;10.60;8.97;;;;;;;;;;777349;178;916805;-66
2022/05/09 01:40:56;;;;;;;10.10;8.37;;;;;;;;;;780502;177;915427;-66
2022/05/09 01:43:28;;;;;;;12.20;8.77;;;;;;;;;;775852;180;919243;-66
2022/05/09 01:45:54;;;;;;;12.23;9.13;;;;;;;;;;772866;179;919251;-66
2022/05/09 01:50:51;;;;;;;15.50;9.70;;;;;;;;;;779705;180;917944;-66
2022/05/09 01:53:17;;;;;;;11.53;9.47;;;;;;;;;;776512;179;919402;-66
2022/05/09 01:55:43;;;;;;;14.77;8.50;;;;;;;;;;773496;179;919872;-66
2022/05/09 01:58:09;;;;;;;10.93;9.73;;;;;;;;;;777701;179;918980;-66
2022/05/09 02:00:34;;;;;;;11.73;8.85;;;;;;;;;;774543;179;919407;-66
2022/05/09 02:03:00;;;;;;;11.97;9.50;;;;;;;;;;772213;181;918990;-66
2022/05/09 02:05:26;;;;;;;12.60;9.77;;;;;;;;;;777390;180;918448;-67
2022/05/09 02:07:52;;;;;;;14.97;9.50;;;;;;;;;;778752;179;919405;-69
2022/05/09 02:10:18;;;;;;;12.20;8.50;;;;;;;;;;776687;179;919646;-66
2022/05/09 02:12:44;;;;;;;13.93;9.00;;;;;;;;;;777672;180;919317;-66
2022/05/09 02:15:10;;;;;;;11.17;9.87;;;;;;;;;;780315;180;1019903;-66
2022/05/09 02:17:36;;;;;;;12.60;8.90;;;;;;;;;;770237;181;919629;-66
2022/05/09 02:20:01;;;;;;;13.13;9.20;;;;;;;;;;774699;177;919373;-66
2022/05/09 02:22:29;;;;;;;10.63;8.27;;;;;;;;;;785726;178;919664;-66
2022/05/09 02:24:53;;;;;;;10.40;8.60;;;;;;;;;;779405;179;919270;-66
2022/05/09 02:27:19;;;;;;;13.73;9.80;;;;;;;;;;776178;179;919248;-66
2022/05/09 02:29:45;;;;;;;14.30;9.80;;;;;;;;;;776660;179;919427;-66
2022/05/09 02:32:13;;;;;;;14.40;9.30;;;;;;;;;;775763;180;919070;-66
2022/05/09 02:34:36;;;;;;;12.30;9.80;;;;;;;;;;781406;179;918933;-66
2022/05/09 02:37:02;;;;;;;18.57;10.77;;;;;;;;;;777405;180;919352;-66
2022/05/09 02:39:28;;;;;;;15.90;9.57;;;;;;;;;;777121;180;918367;-66
2022/05/09 02:41:55;;;;;;;13.70;10.30;;;;;;;;;;775324;179;919768;-66
2022/05/09 02:44:20;;;;;;;15.30;10.70;;;;;;;;;;775930;179;918722;-66
2022/05/09 02:46:46;;;;;;;12.70;10.37;;;;;;;;;;779367;179;919480;-66
2022/05/09 02:49:12;;;;;;;16.10;10.47;;;;;;;;;;778553;179;919589;-66
2022/05/09 02:51:38;;;;;;;15.77;10.53;;;;;;;;;;775736;179;919253;-66
2022/05/09 02:54:03;;;;;;;15.40;11.40;;;;;;;;;;783650;180;918920;-67
2022/05/09 02:56:29;;;;;;;13.90;11.50;;;;;;;;;;769905;179;919777;-66
2022/05/09 02:58:55;;;;;;;16.70;11.80;;;;;;;;;;766848;181;921316;-66
2022/05/09 03:01:21;;;;;;;19.60;13.90;;;;;;;;;;775191;179;919532;-65
2022/05/09 03:06:19;;;;;;;19.65;12.85;;;;;;;;;;752205;184;919819;-66
2022/05/09 03:08:44;;;;;;;16.60;12.90;;;;;;;;;;768192;179;919655;-66
2022/05/09 03:11:10;;;;;;;17.53;13.47;;;;;;;;;;772658;180;919074;-66
2022/05/09 03:13:38;;;;;;;19.83;14.00;;;;;;;;;;767526;180;919775;-65
2022/05/09 03:16:02;;;;;;;17.83;12.97;;;;;;;;;;774570;180;919489;-65
2022/05/09 03:18:28;;;;;;;17.48;12.48;;;;;;;;;;780987;180;924704;-66
2022/05/09 03:20:54;;;;;;;20.17;14.23;;;;;;;;;;774193;180;919381;-66
2022/05/09 03:23:20;;;;;;;22.37;16.33;;;;;;;;;;773539;179;923355;-66
2022/05/09 03:25:45;;;;;;;22.33;15.40;;;;;;;;;;774224;178;920778;-67
2022/05/09 03:28:11;;;;;;;18.40;14.33;;;;;;;;;;779949;179;918789;-65
2022/05/09 03:30:37;;;;;;;23.87;15.63;;;;;;;;;;772546;180;947525;-65
2022/05/09 03:33:03;;;;;;;22.87;14.90;;;;;;;;;;776257;178;918685;-65
2022/05/09 03:35:30;;;;;;;21.27;15.80;;;;;;;;;;780299;179;919003;-65
2022/05/09 03:37:55;;;;;;;22.00;15.65;;;;;;;;;;774611;178;919167;-66
2022/05/09 03:40:21;;;;;;;19.10;13.60;;;;;;;;;;774040;179;920231;-65
2022/05/09 03:42:47;;;;;;;30.80;18.40;;;;;;;;;;781947;178;918706;-65
2022/05/09 03:45:12;;;;;;;20.53;14.90;;;;;;;;;;777701;179;919352;-64
2022/05/09 03:47:38;;;;;;;29.30;18.00;;;;;;;;;;778315;179;918999;-65
2022/05/09 03:50:05;;;;;;;27.70;17.10;;;;;;;;;;775330;179;919660;-66
2022/05/09 03:52:30;;;;;;;23.73;17.17;;;;;;;;;;762847;182;919237;-65
2022/05/09 03:54:57;;;;;;;34.73;17.63;;;;;;;;;;757594;184;918488;-65
2022/05/09 03:57:22;;;;;;;20.43;15.53;;;;;;;;;;775632;179;918988;-65
2022/05/09 03:59:48;;;;;;;25.17;18.80;;;;;;;;;;779195;179;918073;-65
2022/05/09 04:02:14;;;;;;;30.87;22.97;;;;;;;;;;775237;179;917072;-67
2022/05/09 04:04:40;;;;;;;31.47;25.67;;;;;;;;;;771804;179;919844;-66
2022/05/09 04:07:05;;;;;;;21.93;15.23;;;;;;;;;;781718;179;919293;-66
2022/05/09 04:09:31;;;;;;;25.80;16.90;;;;;;;;;;773818;180;919954;-66
2022/05/09 04:11:57;;;;;;;19.73;15.27;;;;;;;;;;768218;180;919822;-66
2022/05/09 04:16:54;;;;;;;33.83;20.07;;;;;;;;;;765520;183;623475;-66
2022/05/09 04:19:20;;;;;;;27.13;18.77;;;;;;;;;;760851;181;700758;-66
2022/05/09 04:21:46;;;;;;;23.42;17.20;;;;;;;;;;756007;181;914787;-66
2022/05/09 04:24:12;;;;;;;30.83;24.73;;;;;;;;;;762673;181;911331;-66
2022/05/09 04:26:38;;;;;;;31.30;18.57;;;;;;;;;;758130;183;920180;-67
2022/05/09 04:29:04;;;;;;;22.98;17.58;;;;;;;;;;760105;183;915966;-66
2022/05/09 04:31:30;;;;;;;22.60;16.45;;;;;;;;;;756277;183;915287;-64
2022/05/09 04:33:57;;;;;;;20.63;16.20;;;;;;;;;;764198;185;917388;-66
2022/05/09 04:36:22;;;;;;;21.20;15.83;;;;;;;;;;755569;183;917901;-66
2022/05/09 04:38:50;;;;;;;18.75;15.77;;;;;;;;;;770184;179;915561;-66
2022/05/09 04:41:14;;;;;;;19.23;14.30;;;;;;;;;;782122;179;916268;-66
2022/05/09 04:43:39;;;;;;;26.77;16.57;;;;;;;;;;775902;178;1015478;-67
2022/05/09 04:46:05;;;;;;;20.05;14.63;;;;;;;;;;780089;179;914158;-66
2022/05/09 04:48:31;;;;;;;19.13;13.63;;;;;;;;;;784030;177;918304;-67
2022/05/09 04:50:57;;;;;;;15.57;12.83;;;;;;;;;;781011;176;920987;-67
2022/05/09 04:53:23;;;;;;;19.70;14.10;;;;;;;;;;778806;179;919933;-67
2022/05/09 04:55:49;;;;;;;20.80;14.23;;;;;;;;;;782712;179;914760;-67
2022/05/09 04:58:14;;;;;;;17.20;13.37;;;;;;;;;;778794;179;911939;-67
2022/05/09 05:00:40;;;;;;;22.30;14.00;;;;;;;;;;774175;177;912477;-67
2022/05/09 05:03:06;;;;;;;15.77;12.43;;;;;;;;;;777241;179;918779;-67
2022/05/09 05:05:32;;;;;;;24.40;13.70;;;;;;;;;;781550;179;670893;-67
2022/05/09 05:07:59;;;;;;;24.00;14.50;;;;;;;;;;779041;179;637073;-67
2022/05/09 05:10:24;;;;;;;21.17;14.83;;;;;;;;;;778988;179;626548;-67
2022/05/09 05:12:50;;;;;;;19.33;14.80;;;;;;;;;;778916;179;1014640;-67
2022/05/09 05:15:16;;;;;;;15.27;12.50;;;;;;;;;;776126;179;926776;-67
2022/05/09 05:17:41;;;;;;;24.03;15.37;;;;;;;;;;782007;179;624541;-67
2022/05/09 05:20:09;;;;;;;18.40;14.80;;;;;;;;;;781960;180;643581;-68
2022/05/09 05:22:34;;;;;;;20.40;15.43;;;;;;;;;;777765;177;717337;-68
2022/05/09 05:24:59;;;;;;;17.30;14.23;;;;;;;;;;777192;179;726133;-67
2022/05/09 05:27:25;;;;;;;36.30;29.03;;;;;;;;;;775929;179;904540;-67
2022/05/09 05:29:55;;;;;;;24.73;18.13;;;;;;;;;;782023;179;913018;-67
2022/05/09 05:32:17;;;;;;;32.27;21.50;;;;;;;;;;777303;179;916084;-66
2022/05/09 05:34:43;;;;;;;29.10;20.73;;;;;;;;;;776748;179;909926;-68
2022/05/09 05:37:09;;;;;;;37.67;22.87;;;;;;;;;;784011;180;626574;-67
2022/05/09 05:39:37;;;;;;;32.13;20.07;;;;;;;;;;775132;179;915181;-67
2022/05/09 05:42:00;;;;;;;32.13;20.02;;;;;;;;;;772786;179;1021703;-68
2022/05/09 05:44:26;;;;;;;28.03;18.93;;;;;;;;;;777803;180;919521;-68
2022/05/09 05:46:52;;;;;;;23.87;18.87;;;;;;;;;;772243;179;1016411;-67
2022/05/09 05:49:18;;;;;;;26.85;18.33;;;;;;;;;;774241;180;919601;-66
2022/05/09 05:51:44;;;;;;;23.03;14.53;;;;;;;;;;775356;180;919548;-66
2022/05/09 05:54:10;;;;;;;23.00;14.80;;;;;;;;;;776460;178;1021214;-67
2022/05/09 05:56:37;;;;;;;29.17;14.97;;;;;;;;;;775502;179;920204;-67
2022/05/09 05:59:01;;;;;;;21.87;15.27;;;;;;;;;;776255;179;919684;-67
2022/05/09 06:01:27;;;;;;;19.50;15.00;;;;;;;;;;780036;179;919155;-68
2022/05/09 06:03:53;;;;;;;19.40;14.27;;;;;;;;;;777177;179;920141;-68
2022/05/09 06:06:19;;;;;;;19.40;13.87;;;;;;;;;;774175;180;923975;-68
2022/05/09 06:08:46;;;;;;;18.80;14.53;;;;;;;;;;780980;179;917580;-67
2022/05/09 06:11:11;;;;;;;19.67;14.73;;;;;;;;;;774719;180;919258;-68
2022/05/09 06:13:36;;;;;;;20.47;14.27;;;;;;;;;;779768;178;920068;-68
2022/05/09 06:16:02;;;;;;;15.60;12.67;;;;;;;;;;784474;179;919297;-68
2022/05/09 06:18:28;;;;;;;18.70;12.63;;;;;;;;;;774644;179;920381;-68
2022/05/09 06:20:54;;;;;;;19.53;12.93;;;;;;;;;;776505;180;918591;-66
2022/05/09 06:23:20;;;;;;;14.82;12.30;;;;;;;;;;774065;180;918941;-69
2022/05/09 06:25:47;;;;;;;16.57;12.83;;;;;;;;;;777950;180;918373;-68
2022/05/09 06:28:12;;;;;;;17.90;12.30;;;;;;;;;;771763;180;923782;-67
2022/05/09 06:30:37;;;;;;;20.40;12.10;;;;;;;;;;772790;179;919648;-68
2022/05/09 06:33:04;;;;;;;17.23;12.60;;;;;;;;;;780615;180;918964;-66
2022/05/09 06:35:29;;;;;;;13.43;11.15;;;;;;;;;;767384;180;918995;-67
2022/05/09 06:37:55;;;;;;;16.43;12.00;;;;;;;;;;773084;180;927513;-68
2022/05/09 06:40:21;;;;;;;22.03;12.60;;;;;;;;;;783707;179;918327;-68
2022/05/09 06:42:51;;;;;;;15.13;11.00;;;;;;;;;;777220;179;919384;-67
2022/05/09 06:45:13;;;;;;;17.00;12.07;;;;;;;;;;777067;179;919834;-68
2022/05/09 06:47:44;;;;;;;20.35;13.02;;;;;;;;;;770551;180;919020;-68
2022/05/09 06:50:09;;;;;;;20.53;14.70;;;;;;;;;;771294;179;919922;-68
2022/05/09 06:52:36;;;;;;;22.47;12.90;;;;;;;;;;774457;179;919689;-70
2022/05/09 06:55:01;;;;;;;18.90;13.03;;;;;;;;;;769679;178;919738;-68
2022/05/09 06:57:27;;;;;;;20.97;13.90;;;;;;;;;;779635;180;920879;-69
2022/05/09 06:59:53;;;;;;;17.47;13.27;;;;;;;;;;774858;179;920686;-67
2022/05/09 07:02:19;;;;;;;18.93;13.30;;;;;;;;;;773737;179;919582;-70
2022/05/09 07:04:44;;;;;;;22.13;14.07;;;;;;;;;;781968;179;915738;-69
2022/05/09 07:07:10;;;;;;;16.63;11.30;;;;;;;;;;776844;179;920693;-69
2022/05/09 07:09:36;;;;;;;27.03;13.20;;;;;;;;;;775232;179;916614;-69
2022/05/09 07:12:02;;;;;;;13.70;11.73;;;;;;;;;;773378;180;919557;-70
2022/05/09 07:14:28;;;;;;;18.10;13.57;;;;;;;;;;778572;180;919315;-70
2022/05/09 07:16:54;;;;;;;16.20;12.70;;;;;;;;;;772842;180;919173;-69
2022/05/09 07:19:20;;;;;;;22.10;12.50;;;;;;;;;;772409;181;919931;-68
2022/05/09 07:21:46;;;;;;;19.13;12.60;;;;;;;;;;778205;180;918888;-68
2022/05/09 07:24:11;;;;;;;20.40;13.63;;;;;;;;;;765625;182;919314;-70
2022/05/09 07:26:37;;;;;;;21.07;13.50;;;;;;;;;;763731;180;1020740;-69
2022/05/09 07:29:04;;;;;;;16.73;12.23;;;;;;;;;;777217;180;919761;-69
2022/05/09 07:31:29;;;;;;;20.10;12.50;;;;;;;;;;775098;180;919310;-68
2022/05/09 07:33:55;;;;;;;18.47;13.63;;;;;;;;;;767474;182;919194;-68
2022/05/09 07:36:21;;;;;;;15.70;11.90;;;;;;;;;;772714;178;1074986;-70
2022/05/09 07:38:47;;;;;;;18.20;11.90;;;;;;;;;;777525;180;919495;-68
2022/05/09 07:41:12;;;;;;;15.93;11.63;;;;;;;;;;776473;180;919477;-68
2022/05/09 07:43:38;;;;;;;18.87;11.30;;;;;;;;;;771669;180;919226;-69
2022/05/09 07:46:04;;;;;;;15.80;12.30;;;;;;;;;;775721;181;919648;-71
2022/05/09 07:48:32;;;;;;;20.73;11.77;;;;;;;;;;771199;180;922836;-70
2022/05/09 07:50:57;;;;;;;18.33;13.30;;;;;;;;;;772073;180;918931;-68
2022/05/09 07:53:26;;;;;;;18.73;13.07;;;;;;;;;;782169;179;918554;-70
2022/05/09 07:55:52;;;;;;;12.90;10.10;;;;;;;;;;779300;179;919129;-71
2022/05/09 07:58:18;;;;;;;19.00;11.33;;;;;;;;;;773584;179;919298;-70
2022/05/09 08:00:45;;;;;;;17.10;10.13;;;;;;;;;;764110;183;919467;-70
2022/05/09 08:03:14;;;;;;;15.93;10.73;;;;;;;;;;775100;180;919183;-68
2022/05/09 08:05:40;;;;;;;12.97;9.60;;;;;;;;;;775870;180;921521;-71
2022/05/09 08:08:06;;;;;;;12.20;9.23;;;;;;;;;;776794;180;919488;-69
2022/05/09 08:10:31;;;;;;;16.77;9.97;;;;;;;;;;779776;180;919161;-70
2022/05/09 08:12:58;;;;;;;12.50;8.10;;;;;;;;;;778322;179;919355;-69
2022/05/09 08:15:23;;;;;;;15.43;8.80;;;;;;;;;;777264;177;1021487;-71
2022/05/09 08:17:49;;;;;;;13.30;10.47;;;;;;;;;;773519;179;917992;-70
2022/05/09 08:20:15;;;;;;;13.60;9.77;;;;;;;;;;779438;177;926625;-70
2022/05/09 08:22:41;;;;;;;14.60;8.60;;;;;;;;;;771458;180;919568;-68
2022/05/09 08:25:07;;;;;;;17.73;9.30;;;;;;;;;;765728;182;918927;-69
2022/05/09 08:27:33;;;;;;;14.43;9.20;;;;;;;;;;771351;180;918981;-72
2022/05/09 08:29:58;;;;;;;11.07;9.43;;;;;;;;;;772961;181;920404;-72
2022/05/09 08:32:24;;;;;;;10.07;7.15;;;;;;;;;;772007;179;919470;-68
2022/05/09 08:34:51;;;;;;;17.67;8.63;;;;;;;;;;772052;182;918982;-70
2022/05/09 08:37:18;;;;;;;13.10;8.20;;;;;;;;;;768244;179;919250;-68
2022/05/09 08:39:42;;;;;;;14.10;8.00;;;;;;;;;;770554;180;918924;-70
2022/05/09 08:42:08;;;;;;;14.90;8.50;;;;;;;;;;773883;180;919025;-71
2022/05/09 08:44:40;;;;;;;13.07;8.20;;;;;;;;;;775463;179;919434;-69
2022/05/09 08:47:08;;;;;;;13.63;7.20;;;;;;;;;;774173;178;919389;-70
2022/05/09 08:49:36;;;;;;;10.70;7.87;;;;;;;;;;773386;177;1021457;-70
2022/05/09 08:52:17;;;;;;;17.95;7.22;;;;;;;;;;777666;180;919420;-71
2022/05/09 08:54:43;;;;;;;12.40;6.97;;;;;;;;;;777436;180;919069;-74
2022/05/09 08:57:09;;;;;;;10.37;5.60;;;;;;;;;;775888;180;919446;-70
2022/05/09 08:59:36;;;;;;;7.80;5.18;;;;;;;;;;773498;177;918697;-69
2022/05/09 09:02:05;;;;;;;12.30;6.37;;;;;;;;;;776337;179;919422;-71
2022/05/09 09:04:30;;;;;;;12.17;5.93;;;;;;;;;;780048;179;919580;-72
2022/05/09 09:07:12;;;;;;;9.00;6.17;;;;;;;;;;776272;179;923449;-72
2022/05/09 09:09:40;;;;;;;10.13;6.80;;;;;;;;;;766956;180;919032;-71
2022/05/09 09:12:07;;;;;;;12.00;5.67;;;;;;;;;;774745;179;919898;-71
2022/05/09 09:14:37;;;;;;;7.40;5.93;;;;;;;;;;778626;179;920296;-69
2022/05/09 09:17:08;;;;;;;13.00;6.80;;;;;;;;;;781031;179;919453;-74
2022/05/09 09:19:38;;;;;;;13.20;7.27;;;;;;;;;;774996;180;918990;-70
2022/05/09 09:22:05;;;;;;;10.40;7.30;;;;;;;;;;773375;179;920601;-69
2022/05/09 09:24:37;;;;;;;10.50;7.47;;;;;;;;;;771685;180;919338;-70
2022/05/09 09:27:04;;;;;;;9.63;7.75;;;;;;;;;;772150;180;918644;-70
2022/05/09 09:29:34;;;;;;;15.33;6.90;;;;;;;;;;775716;178;919207;-70
2022/05/09 09:32:08;;;;;;;13.35;6.50;;;;;;;;;;773452;178;919826;-72
2022/05/09 09:34:40;;;;;;;9.50;6.90;;;;;;;;;;775194;179;926684;-69
2022/05/09 09:37:06;;;;;;;12.68;5.50;;;;;;;;;;779818;179;918240;-70
2022/05/09 09:39:32;;;;;;;10.10;6.10;;;;;;;;;;774069;180;918971;-73
2022/05/09 09:41:58;;;;;;;6.77;4.60;;;;;;;;;;774680;179;918652;-73
2022/05/09 09:44:24;;;;;;;7.07;5.05;;;;;;;;;;775512;180;919073;-70
2022/05/09 09:46:56;;;;;;;7.07;4.93;;;;;;;;;;780102;180;919591;-71
2022/05/09 09:49:24;;;;;;;11.97;5.23;;;;;;;;;;776097;179;918782;-71
2022/05/09 09:51:48;;;;;;;9.80;5.53;;;;;;;;;;775559;178;919083;-72
2022/05/09 09:54:17;;;;;;;8.13;4.85;;;;;;;;;;779353;179;918875;-69
2022/05/09 09:56:43;;;;;;;7.40;5.43;;;;;;;;;;774578;180;918639;-71
2022/05/09 09:59:23;;;;;;;10.83;7.00;;;;;;;;;;772924;179;919568;-72
2022/05/09 10:02:06;;;;;;;12.57;8.40;;;;;;;;;;774378;180;919008;-72
2022/05/09 10:04:32;;;;;;;10.47;7.63;;;;;;;;;;774134;179;919069;-73
2022/05/09 10:06:59;;;;;;;7.67;6.10;;;;;;;;;;773579;180;919123;-70
2022/05/09 10:09:23;;;;;;;9.03;7.60;;;;;;;;;;780247;179;882630;-72
2022/05/09 10:11:49;;;;;;;10.33;6.73;;;;;;;;;;773445;180;918861;-70
2022/05/09 10:14:15;;;;;;;11.12;6.12;;;;;;;;;;773444;180;920380;-69
2022/05/09 10:16:45;;;;;;;10.27;6.50;;;;;;;;;;776555;177;918887;-71
2022/05/09 10:19:08;;;;;;;9.83;7.40;;;;;;;;;;776576;179;919293;-72
2022/05/09 10:26:38;;;;;;;8.77;6.10;;;;;;;;;;779655;179;918936;-71
2022/05/09 10:29:05;;;;;;;15.10;7.70;;;;;;;;;;773495;180;920384;-71
2022/05/09 10:31:47;;;;;;;7.33;6.13;;;;;;;;;;773561;179;916270;-71
2022/05/09 10:34:14;;;;;;;15.50;6.80;;;;;;;;;;774133;177;917163;-70
2022/05/09 10:36:39;;;;;;;15.07;8.03;;;;;;;;;;774023;179;916236;-70
2022/05/09 10:39:09;;;;;;;9.60;7.13;;;;;;;;;;777402;178;1112259;-71
2022/05/09 10:41:38;;;;;;;9.87;6.23;;;;;;;;;;777949;177;919339;-72
2022/05/09 10:44:05;;;;;;;10.53;5.57;;;;;;;;;;776213;178;919655;-74
2022/05/09 10:46:40;;;;;;;8.20;5.50;;;;;;;;;;778577;178;911257;-71
2022/05/09 10:49:09;;;;;;;12.60;6.90;;;;;;;;;;777176;179;919251;-73
2022/05/09 10:51:35;;;;;;;9.13;6.00;;;;;;;;;;773472;179;919399;-71
2022/05/09 10:54:02;;;;;;;8.23;6.40;;;;;;;;;;774395;180;918486;-71
2022/05/09 10:56:27;;;;;;;10.47;6.67;;;;;;;;;;775049;177;917942;-71
2022/05/09 10:58:54;;;;;;;7.70;6.47;;;;;;;;;;765033;178;908468;-69
2022/05/09 11:01:35;;;;;;;12.03;6.83;;;;;;;;;;762679;184;622370;-72
2022/05/09 11:04:01;;;;;;;12.23;6.40;;;;;;;;;;757908;181;918669;-68
2022/05/09 11:06:27;;;;;;;15.70;6.50;;;;;;;;;;776084;179;919108;-71
2022/05/09 11:09:08;;;;;;;13.20;6.97;;;;;;;;;;781501;179;893170;-71
2022/05/09 11:11:35;;;;;;;7.60;6.00;;;;;;;;;;772027;180;917985;-70
2022/05/09 11:14:12;;;;;;;9.70;6.33;;;;;;;;;;776832;180;918868;-70
2022/05/09 11:16:44;;;;;;;8.53;6.20;;;;;;;;;;774848;177;1020573;-71
2022/05/09 11:19:17;;;;;;;7.47;6.70;;;;;;;;;;770091;177;920777;-70
2022/05/09 11:21:44;;;;;;;8.40;6.50;;;;;;;;;;773652;179;921988;-73
2022/05/09 11:24:20;;;;;;;14.57;7.73;;;;;;;;;;774271;180;919052;-72
2022/05/09 11:26:47;;;;;;;7.70;6.77;;;;;;;;;;773386;179;918043;-71
2022/05/09 11:29:17;;;;;;;8.10;7.10;;;;;;;;;;772472;177;920793;-70
2022/05/09 11:31:48;;;;;;;10.37;7.20;;;;;;;;;;774454;179;919386;-71
2022/05/09 11:34:21;;;;;;;9.80;6.40;;;;;;;;;;777550;178;918798;-71
2022/05/09 11:36:59;;;;;;;10.33;6.83;;;;;;;;;;778015;180;919888;-72
2022/05/09 11:39:27;;;;;;;10.73;8.30;;;;;;;;;;774659;179;915847;-69
2022/05/09 11:41:59;;;;;;;9.00;6.03;;;;;;;;;;775827;179;921089;-72
2022/05/09 11:44:31;;;;;;;13.13;7.10;;;;;;;;;;773118;179;917146;-70
2022/05/09 11:47:12;;;;;;;7.43;6.63;;;;;;;;;;771088;178;931109;-71
2022/05/09 11:49:44;;;;;;;8.40;6.00;;;;;;;;;;772769;179;918768;-71
2022/05/09 11:52:24;;;;;;;9.07;6.97;;;;;;;;;;774815;178;918789;-71
2022/05/09 11:54:50;;;;;;;8.50;6.40;;;;;;;;;;784558;179;918381;-72
2022/05/09 11:57:20;;;;;;;12.93;6.40;;;;;;;;;;774918;179;921359;-71
2022/05/09 11:59:48;;;;;;;10.10;5.53;;;;;;;;;;775012;179;920751;-71
2022/05/09 12:02:14;;;;;;;6.00;5.17;;;;;;;;;;780126;179;917029;-71
2022/05/09 12:04:42;;;;;;;8.00;5.13;;;;;;;;;;774864;180;919462;-69
2022/05/09 12:07:14;;;;;;;6.77;5.07;;;;;;;;;;774874;179;919025;-74
2022/05/09 12:09:46;;;;;;;9.20;6.03;;;;;;;;;;772765;177;917316;-73
2022/05/09 12:12:11;;;;;;;9.70;5.30;;;;;;;;;;772896;179;918814;-71
2022/05/09 12:14:41;;;;;;;8.20;5.70;;;;;;;;;;771804;180;917976;-72
2022/05/09 12:17:13;;;;;;;6.20;5.23;;;;;;;;;;772108;178;919130;-70
2022/05/09 12:19:39;;;;;;;8.87;6.00;;;;;;;;;;768535;179;919596;-72
2022/05/09 12:22:11;;;;;;;10.40;5.68;;;;;;;;;;776255;180;919114;-71
2022/05/09 12:24:41;;;;;;;7.87;5.47;;;;;;;;;;765510;180;917578;-70
2022/05/09 12:27:02;;;;;;;7.40;4.83;;;;;;;;;;769569;180;919298;-71
2022/05/09 12:29:28;;;;;;;8.60;5.03;;;;;;;;;;772949;179;928350;-71
2022/05/09 12:31:56;;;;;;;7.23;4.77;;;;;;;;;;780127;180;919139;-74
2022/05/09 12:34:23;;;;;;;8.67;4.70;;;;;;;;;;779328;179;914361;-72
2022/05/09 12:36:51;;;;;;;8.63;4.20;;;;;;;;;;774330;180;919387;-73
2022/05/09 12:39:16;;;;;;;6.30;4.40;;;;;;;;;;773139;180;919518;-74
2022/05/09 12:41:42;;;;;;;9.53;5.07;;;;;;;;;;773335;180;919172;-71
2022/05/09 12:44:09;;;;;;;4.87;3.80;;;;;;;;;;773282;180;918896;-73
2022/05/09 12:46:35;;;;;;;11.20;4.60;;;;;;;;;;774777;179;920755;-72
2022/05/09 12:49:01;;;;;;;4.90;4.17;;;;;;;;;;779953;180;915558;-70
2022/05/09 12:51:26;;;;;;;9.30;4.93;;;;;;;;;;775938;179;918559;-71
2022/05/09 12:53:52;;;;;;;6.53;4.53;;;;;;;;;;774233;180;916099;-70
2022/05/09 12:56:18;;;;;;;5.50;4.00;;;;;;;;;;778395;179;919467;-70
2022/05/09 12:58:44;;;;;;;8.00;4.43;;;;;;;;;;771102;180;918471;-70
2022/05/09 13:01:12;;;;;;;6.23;5.00;;;;;;;;;;770207;180;919300;-72
2022/05/09 13:03:40;;;;;;;7.33;4.60;;;;;;;;;;774959;179;919281;-71
2022/05/09 13:06:09;;;;;;;7.97;4.50;;;;;;;;;;785705;178;919477;-71
2022/05/09 13:08:36;;;;;;;7.47;4.47;;;;;;;;;;779200;179;919903;-69
2022/05/09 13:11:01;;;;;;;7.03;4.97;;;;;;;;;;766533;180;918403;-71
2022/05/09 13:13:28;;;;;;;6.75;4.07;;;;;;;;;;779943;179;919094;-72
2022/05/09 13:15:54;;;;;;;6.30;4.90;;;;;;;;;;775690;177;918351;-71
2022/05/09 13:18:20;;;;;;;6.07;4.13;;;;;;;;;;776266;179;918883;-71
2022/05/09 13:20:47;;;;;;;8.83;4.00;;;;;;;;;;779463;177;918868;-70
2022/05/09 13:23:12;;;;;;;7.17;4.73;;;;;;;;;;777141;180;918643;-71
2022/05/09 13:25:38;;;;;;;5.10;4.10;;;;;;;;;;775149;179;918926;-70
2022/05/09 13:28:04;;;;;;;9.30;5.50;;;;;;;;;;774136;179;919376;-71
2022/05/09 13:30:31;;;;;;;7.97;4.00;;;;;;;;;;778053;180;919204;-71
2022/05/09 13:32:57;;;;;;;8.03;3.97;;;;;;;;;;776204;179;918247;-73
2022/05/09 13:35:23;;;;;;;6.17;4.13;;;;;;;;;;775062;179;915697;-71
2022/05/09 13:37:52;;;;;;;7.17;4.80;;;;;;;;;;775236;179;933182;-72
2022/05/09 13:40:15;;;;;;;6.63;3.57;;;;;;;;;;774327;179;916482;-70
2022/05/09 13:42:40;;;;;;;11.33;4.30;;;;;;;;;;774758;179;920673;-71
2022/05/09 13:45:09;;;;;;;6.78;3.83;;;;;;;;;;772491;179;920399;-71
2022/05/09 13:47:36;;;;;;;12.33;4.33;;;;;;;;;;779904;179;918798;-70
2022/05/09 13:50:01;;;;;;;8.95;4.55;;;;;;;;;;774869;179;919648;-71
2022/05/09 13:52:27;;;;;;;8.37;4.47;;;;;;;;;;776107;177;919137;-70
2022/05/09 13:54:53;;;;;;;15.40;4.27;;;;;;;;;;781185;179;1022095;-71
2022/05/09 13:57:19;;;;;;;6.10;3.37;;;;;;;;;;772525;180;919387;-70
2022/05/09 13:59:45;;;;;;;4.83;3.60;;;;;;;;;;772155;178;919086;-72
2022/05/09 14:02:11;;;;;;;9.83;3.73;;;;;;;;;;773962;179;1022133;-70
2022/05/09 14:04:36;;;;;;;11.07;3.83;;;;;;;;;;776738;179;649263;-69
2022/05/09 14:07:37;;;;;;;6.20;3.40;;;;;;;;;;774586;177;919455;-72
2022/05/09 14:09:28;;;;;;;8.13;4.03;;;;;;;;;;772549;179;919671;-73
2022/05/09 14:11:54;;;;;;;8.60;3.63;;;;;;;;;;780809;180;927419;-74
2022/05/09 14:14:26;;;;;;;6.30;3.40;;;;;;;;;;776611;179;943377;-71
2022/05/09 14:16:51;;;;;;;6.50;3.85;;;;;;;;;;777341;179;919338;-70
2022/05/09 14:19:20;;;;;;;7.40;3.50;;;;;;;;;;776090;179;1022202;-70
2022/05/09 14:21:47;;;;;;;5.53;3.33;;;;;;;;;;778673;179;623486;-71
2022/05/09 14:24:13;;;;;;;4.63;3.10;;;;;;;;;;780047;177;643509;-69
2022/05/09 14:31:42;;;;;;;10.93;3.13;;;;;;;;;;781069;179;918948;-69